.
WxDataArchive / Data Records for 2015-02-22
2015-02-21 February 2015 2015-02-23

Data Records for Sunday, 22 February 2015

Time	Temp	Chill	HIndex	Humid	Dewpt	 Wind 	HiWind	WindDir	Rain 	Barom
-----	----	-----	------	-----	-----	------	------	-------	-----	-----
00:00	21.4	21.4	21.4	89	18.7	0	1	90	0.00	30.138 
00:05	21.4	21.4	21.4	89	18.7	0	0	---	0.00	30.138 
00:10	21.4	21.4	21.4	89	18.7	0	0	---	0.00	30.138 
00:15	21.4	21.4	21.4	89	18.7	0	0	---	0.00	30.144 
00:20	21.4	21.4	21.4	89	18.7	0	0	---	0.00	30.144 
00:25	21.6	21.6	21.6	89	18.9	0	1	90	0.00	30.144 
00:30	21.6	21.6	21.6	89	18.9	0	0	---	0.00	30.143 
00:35	21.6	21.6	21.6	89	18.9	0	1	90	0.00	30.143 
00:40	21.6	21.6	21.6	89	18.9	0	0	---	0.00	30.143 
00:45	21.6	21.6	21.6	89	18.9	0	0	---	0.00	30.151 
00:50	21.6	21.6	21.6	89	18.9	0	0	---	0.00	30.151 
00:55	21.6	21.6	21.6	89	18.9	0	0	---	0.00	30.151 
01:00	21.6	21.6	21.6	89	18.9	0	0	---	0.00	30.157 
01:05	21.6	21.6	21.6	89	18.9	0	0	---	0.00	30.157 
01:10	21.8	21.8	21.8	89	19.1	0	0	---	0.00	30.157 
01:15	21.8	21.8	21.8	89	19.1	0	1	90	0.00	30.164 
01:20	21.9	21.9	21.9	89	19.2	0	0	---	0.00	30.164 
01:25	21.9	21.9	21.9	89	19.2	0	0	---	0.00	30.164 
01:30	21.9	21.9	21.9	89	19.2	0	0	---	0.00	30.166 
01:35	22.1	22.1	22.1	88	19.1	0	0	---	0.00	30.166 
01:40	22.1	22.1	22.1	88	19.1	0	0	---	0.00	30.166 
01:45	22.1	22.1	22.1	88	19.1	0	0	---	0.00	30.167 
01:50	22.2	22.2	22.2	88	19.2	0	0	---	0.00	30.167 
01:55	22.2	22.2	22.2	88	19.2	0	0	---	0.00	30.167 
02:00	22.2	22.2	22.2	88	19.2	0	0	---	0.00	30.167 
02:05	22.2	22.2	22.2	88	19.2	0	0	---	0.00	30.167 
02:10	22.2	22.2	22.2	88	19.2	0	0	---	0.00	30.167 
02:15	22.2	22.2	22.2	88	19.2	0	0	---	0.00	30.172 
02:20	22.2	22.2	22.2	88	19.2	0	0	---	0.00	30.172 
02:25	22.2	22.2	22.2	88	19.2	0	0	---	0.00	30.172 
02:30	22.2	22.2	22.2	88	19.2	0	0	---	0.00	30.181 
02:35	22.4	22.4	22.4	88	19.4	0	0	---	0.00	30.181 
02:40	22.4	22.4	22.4	88	19.4	0	0	---	0.00	30.181 
02:45	22.5	22.5	22.5	88	19.5	0	1	90	0.00	30.192 
02:50	22.5	22.5	22.5	88	19.5	0	0	---	0.00	30.192 
02:55	22.7	22.7	22.7	88	19.7	0	0	---	0.00	30.192 
03:00	22.9	22.9	22.9	88	19.9	0	0	---	0.00	30.196 
03:05	22.9	22.9	22.9	88	19.9	0	1	90	0.00	30.196 
03:10	23.0	23.0	23.0	88	20.0	0	0	---	0.00	30.196 
03:15	23.2	23.2	23.2	88	20.2	0	0	---	0.00	30.196 
03:20	23.2	23.2	23.2	87	19.9	0	0	---	0.00	30.196 
03:25	23.3	23.3	23.3	87	20.0	0	0	---	0.00	30.196 
03:30	23.3	23.3	23.3	87	20.0	0	0	---	0.00	30.197 
03:35	23.5	23.5	23.5	87	20.2	0	0	---	0.00	30.197 
03:40	23.5	23.5	23.5	87	20.2	0	0	---	0.00	30.197 
03:45	23.6	23.6	23.6	87	20.3	0	1	90	0.00	30.194 
03:50	23.6	23.6	23.6	87	20.3	0	0	---	0.00	30.194 
03:55	23.8	23.8	23.8	86	20.2	0	0	---	0.00	30.194 
04:00	23.8	23.8	23.8	86	20.2	0	0	---	0.00	30.187 
04:05	23.8	23.8	23.8	86	20.2	0	0	---	0.00	30.187 
04:10	23.8	23.8	23.8	86	20.2	0	0	---	0.00	30.187 
04:15	23.9	23.9	23.9	86	20.3	0	0	---	0.00	30.184 
04:20	23.9	23.9	23.9	85	20.1	0	0	---	0.00	30.184 
04:25	23.9	23.9	23.9	85	20.1	0	0	---	0.00	30.184 
04:30	23.9	23.9	23.9	85	20.1	0	0	---	0.00	30.189 
04:35	23.9	23.9	23.9	85	20.1	0	0	---	0.00	30.189 
04:40	23.9	23.9	23.9	85	20.1	0	0	---	0.00	30.189 
04:45	23.9	23.9	23.9	85	20.1	0	0	---	0.00	30.189 
04:50	23.9	23.9	23.9	85	20.1	0	0	---	0.00	30.189 
04:55	23.9	23.9	23.9	85	20.1	0	0	---	0.00	30.189 
05:00	23.9	23.9	23.9	85	20.1	0	0	---	0.00	30.195 
05:05	24.1	24.1	24.1	85	20.3	0	0	---	0.00	30.195 
05:10	24.1	24.1	24.1	85	20.3	0	1	90	0.00	30.195 
05:15	24.1	24.1	24.1	85	20.3	0	0	---	0.00	30.196 
05:20	24.2	24.2	24.2	85	20.4	0	1	90	0.00	30.196 
05:25	24.2	24.2	24.2	85	20.4	0	0	---	0.00	30.196 
05:30	24.2	24.2	24.2	85	20.4	0	0	---	0.00	30.207 
05:35	24.4	24.4	24.4	85	20.6	0	0	---	0.00	30.207 
05:40	24.4	24.4	24.4	85	20.6	0	1	90	0.00	30.207 
05:45	24.5	24.5	24.5	85	20.6	0	1	90	0.00	30.215 
05:50	24.5	24.5	24.5	85	20.6	0	0	---	0.00	30.215 
05:55	24.7	24.7	24.7	85	20.8	0	1	90	0.00	30.215 
06:00	24.7	24.7	24.7	84	20.6	0	1	90	0.00	30.212 
06:05	24.7	24.7	24.7	84	20.6	0	1	90	0.00	30.212 
06:10	24.8	24.8	24.8	84	20.7	0	1	90	0.00	30.212 
06:15	24.8	24.8	24.8	84	20.7	0	1	90	0.00	30.214 
06:20	24.8	24.8	24.8	84	20.7	0	0	---	0.00	30.214 
06:25	24.8	24.8	24.8	84	20.7	0	2	90	0.00	30.214 
06:30	25.0	25.0	25.0	84	20.9	0	2	90	0.00	30.226 
06:35	25.0	25.0	25.0	84	20.9	0	1	90	0.00	30.226 
06:40	25.1	25.1	25.1	84	21.0	0	0	---	0.00	30.226 
06:45	25.1	25.1	25.1	84	21.0	0	1	90	0.00	30.226 
06:50	25.1	25.1	25.1	84	21.0	0	0	---	0.00	30.226 
06:55	25.3	25.3	25.3	84	21.2	0	1	90	0.00	30.226 
07:00	25.3	25.3	25.3	84	21.2	0	0	---	0.00	30.224 
07:05	25.3	25.3	25.3	84	21.2	0	0	---	0.00	30.224 
07:10	25.4	25.4	25.4	84	21.3	0	1	90	0.00	30.224 
07:15	25.4	25.4	25.4	84	21.3	0	0	---	0.00	30.223 
07:20	25.4	25.4	25.4	84	21.3	0	0	---	0.00	30.223 
07:25	25.4	25.4	25.4	84	21.3	0	0	---	0.00	30.223 
07:30	25.4	25.4	25.4	84	21.3	0	0	---	0.00	30.231 
07:35	25.4	25.4	25.4	84	21.3	0	0	---	0.00	30.231 
07:40	25.4	25.4	25.4	84	21.3	0	0	---	0.00	30.231 
07:45	25.4	25.4	25.4	84	21.3	0	0	---	0.00	30.240 
07:50	25.4	25.4	25.4	84	21.3	0	0	---	0.00	30.240 
07:55	25.4	25.4	25.4	84	21.3	0	0	---	0.00	30.240 
08:00	25.4	25.4	25.4	84	21.3	0	0	---	0.00	30.255 
08:05	25.4	25.4	25.4	84	21.3	0	0	---	0.00	30.255 
08:10	25.6	25.6	25.6	84	21.5	0	0	---	0.00	30.255 
08:15	25.6	25.6	25.6	84	21.5	0	0	---	0.00	30.266 
08:20	25.7	25.7	25.7	84	21.5	0	0	---	0.00	30.266 
08:25	25.8	25.8	25.8	84	21.6	0	1	90	0.00	30.266 
08:30	25.8	25.8	25.8	84	21.6	0	0	---	0.00	30.269 
08:35	26.0	26.0	26.0	84	21.8	0	0	---	0.00	30.269 
08:40	26.1	26.1	26.1	84	21.9	0	0	---	0.00	30.269 
08:45	26.3	26.3	26.3	84	22.1	0	0	---	0.00	30.277 
08:50	26.4	26.4	26.4	83	22.0	0	1	90	0.00	30.277 
08:55	26.4	26.4	26.4	83	22.0	0	1	90	0.00	30.277 
09:00	26.6	26.6	26.6	83	22.1	0	1	90	0.00	30.280 
09:05	26.7	26.7	26.7	83	22.2	0	1	90	0.00	30.280 
09:10	26.9	26.9	26.9	82	22.2	0	1	90	0.00	30.280 
09:15	26.9	26.9	26.9	82	22.2	0	1	90	0.00	30.290 
09:20	26.9	26.9	26.9	81	21.9	0	2	90	0.00	30.290 
09:25	27.0	27.0	27.0	81	22.0	0	1	90	0.00	30.290 
09:30	27.2	27.2	27.2	81	22.2	1	3	90	0.00	30.298 
09:35	27.3	27.3	27.3	80	22.0	1	4	90	0.00	30.298 
09:40	27.5	27.5	27.5	79	21.9	1	3	90	0.00	30.298 
09:45	27.8	27.8	27.8	79	22.2	1	3	90	0.00	30.296 
09:50	27.8	27.8	27.8	78	21.8	1	4	90	0.00	30.296 
09:55	28.1	28.1	28.1	77	21.8	1	3	90	0.00	30.296 
10:00	28.5	28.5	28.5	77	22.2	1	3	90	0.00	30.295 
10:05	28.7	28.7	28.7	76	22.1	2	4	90	0.00	30.295 
10:10	28.7	28.7	28.7	75	21.8	2	4	270	0.01	30.295 
10:15	28.8	28.8	28.8	75	21.9	1	4	315	0.00	30.297 
10:20	29.1	29.1	29.1	74	21.9	2	4	315	0.00	30.297 
10:25	29.0	29.0	29.0	73	21.4	2	5	270	0.00	30.297 
10:30	29.3	29.3	29.3	73	21.7	2	5	315	0.00	30.302 
10:35	29.5	29.5	29.5	72	21.6	2	4	338	0.00	30.302 
10:40	30.0	30.0	30.0	70	21.4	2	4	292	0.00	30.302 
10:45	29.8	29.8	29.8	68	20.5	2	4	292	0.00	30.302 
10:50	30.0	30.0	30.0	68	20.7	2	5	292	0.00	30.302 
10:55	29.8	29.8	29.8	65	19.5	2	5	292	0.00	30.302 
11:00	29.7	29.7	29.7	64	19.0	2	6	315	0.00	30.303 
11:05	29.5	29.5	29.5	64	18.8	2	6	315	0.00	30.303 
11:10	29.7	29.7	29.7	65	19.4	1	3	315	0.00	30.303 
11:15	29.7	29.7	29.7	65	19.4	2	3	315	0.00	30.302 
11:20	29.5	29.5	29.5	66	19.6	2	4	248	0.00	30.302 
11:25	29.5	29.5	29.5	66	19.6	2	4	270	0.00	30.302 
11:30	29.5	29.5	29.5	65	19.2	2	6	315	0.00	30.308 
11:35	29.5	29.5	29.5	65	19.2	2	6	270	0.00	30.308 
11:40	29.4	29.4	29.4	64	18.8	2	6	270	0.00	30.308 
11:45	29.4	29.4	29.4	65	19.1	2	5	248	0.00	30.323 
11:50	29.7	29.7	29.7	65	19.4	1	4	248	0.01	30.323 
11:55	29.5	29.5	29.5	64	18.8	2	6	270	0.00	30.323 
12:00	29.3	29.3	29.3	65	19.0	2	6	270	0.00	30.334 
12:05	29.3	29.3	29.3	65	19.0	2	4	270	0.00	30.334 
12:10	29.1	29.1	29.1	64	18.5	3	6	292	0.00	30.334 
12:15	29.3	29.3	29.3	64	18.7	1	4	292	0.00	30.333 
12:20	29.3	29.3	29.3	65	19.0	1	5	292	0.00	30.333 
12:25	29.3	29.3	29.3	65	19.0	1	4	315	0.00	30.333 
12:30	29.1	29.1	29.1	64	18.5	2	7	270	0.00	30.331 
12:35	29.1	29.1	29.1	63	18.1	2	5	270	0.00	30.331 
12:40	29.4	29.4	29.4	61	17.6	2	4	248	0.00	30.331 
12:45	29.4	29.4	29.4	65	19.1	2	7	248	0.00	30.325 
12:50	29.1	29.1	29.1	62	17.7	2	7	315	0.00	30.325 
12:55	29.1	29.1	29.1	63	18.1	2	5	248	0.00	30.325 
13:00	29.0	29.0	29.0	63	18.0	2	6	338	0.00	30.326 
13:05	28.7	28.7	28.7	62	17.4	3	6	270	0.00	30.326 
13:10	28.4	28.4	28.4	63	17.4	3	6	270	0.00	30.326 
13:15	28.4	28.4	28.4	64	17.8	2	5	292	0.00	30.325 
13:20	28.4	28.4	28.4	64	17.8	2	5	270	0.00	30.325 
13:25	28.4	28.4	28.4	63	17.4	2	6	270	0.00	30.325 
13:30	28.7	28.7	28.7	63	17.7	1	4	292	0.00	30.322 
13:35	29.0	29.0	29.0	63	18.0	2	4	270	0.00	30.322 
13:40	29.1	29.1	29.1	62	17.7	2	5	270	0.00	30.322 
13:45	28.8	28.8	28.8	61	17.1	2	6	248	0.00	30.323 
13:50	28.8	28.8	28.8	61	17.1	2	6	270	0.01	30.323 
13:55	27.9	27.9	27.9	67	18.4	2	6	292	0.00	30.323 
14:00	27.0	27.0	27.0	69	18.2	2	6	292	0.00	30.339 
14:05	26.6	26.6	26.6	71	18.5	2	4	315	0.00	30.339 
14:10	26.4	26.4	26.4	72	18.6	2	7	315	0.00	30.339 
14:15	26.6	26.6	26.6	73	19.1	2	6	270	0.00	30.338 
14:20	26.4	26.4	26.4	71	18.3	2	7	292	0.00	30.338 
14:25	26.4	26.4	26.4	69	17.6	2	7	270	0.00	30.338 
14:30	26.3	26.3	26.3	68	17.2	3	7	270	0.00	30.341 
14:35	26.4	26.4	26.4	68	17.3	2	6	292	0.00	30.341 
14:40	26.4	26.4	26.4	67	17.0	2	6	270	0.00	30.341 
14:45	26.7	26.7	26.7	67	17.2	0	2	270	0.00	30.347 
14:50	26.6	26.6	26.6	64	16.1	3	10	292	0.00	30.347 
14:55	26.6	26.6	26.6	63	15.7	2	5	292	0.00	30.347 
15:00	26.3	26.3	26.3	63	15.4	2	5	338	0.00	30.355 
15:05	26.1	26.1	26.1	62	14.9	2	5	338	0.00	30.355 
15:10	26.1	26.1	26.1	60	14.1	2	7	292	0.00	30.355 
15:15	26.1	26.1	26.1	59	13.8	3	9	292	0.00	30.357 
15:20	26.0	26.0	26.0	58	13.3	3	9	315	0.00	30.357 
15:25	26.0	26.0	26.0	56	12.5	2	6	315	0.00	30.357 
15:30	26.4	26.4	26.4	57	13.3	1	5	338	0.00	30.366 
15:35	26.4	26.4	26.4	58	13.7	3	6	292	0.00	30.366 
15:40	26.1	26.1	26.1	62	14.9	2	7	315	0.00	30.366 
15:45	25.8	25.8	25.8	64	15.3	1	5	270	0.00	30.367 
15:50	25.6	25.6	25.6	63	14.8	2	5	292	0.00	30.367 
15:55	25.3	25.3	25.3	63	14.5	2	6	338	0.00	30.367 
16:00	25.1	25.1	25.1	63	14.3	1	5	338	0.00	30.371 
16:05	25.1	25.1	25.1	61	13.6	2	6	315	0.00	30.371 
16:10	25.3	25.3	25.3	59	13.0	1	3	292	0.00	30.371 
16:15	24.8	24.8	24.8	61	13.3	3	10	292	0.00	30.378 
16:20	24.4	24.4	24.4	63	13.6	2	7	315	0.00	30.378 
16:25	24.1	24.1	24.1	62	13.0	3	6	292	0.00	30.378 
16:30	23.9	23.9	23.9	62	12.8	2	6	270	0.00	30.386 
16:35	23.6	23.6	23.6	60	11.8	3	6	292	0.00	30.386 
16:40	23.5	23.5	23.5	60	11.7	2	7	292	0.00	30.386 
16:45	23.3	23.3	23.3	58	10.7	2	6	292	0.00	30.385 
16:50	23.3	23.3	23.3	58	10.7	2	5	292	0.00	30.385 
16:55	23.3	23.3	23.3	58	10.7	2	5	270	0.00	30.385 
17:00	23.2	23.2	23.2	58	10.6	2	6	270	0.00	30.390 
17:05	22.9	22.9	22.9	60	11.1	3	7	338	0.00	30.390 
17:10	22.5	22.5	22.5	61	11.1	2	9	338	0.00	30.390 
17:15	22.5	22.5	22.5	62	11.5	3	7	338	0.00	30.388 
17:20	22.4	22.4	22.4	62	11.4	3	7	292	0.00	30.388 
17:25	22.2	22.2	22.2	64	11.9	1	5	315	0.00	30.388 
17:30	21.9	21.9	21.9	63	11.3	2	7	338	0.00	30.397 
17:35	21.6	21.6	21.6	62	10.6	2	7	315	0.00	30.397 
17:40	21.6	21.6	21.6	63	11.0	1	4	270	0.00	30.397 
17:45	21.4	21.4	21.4	65	11.5	2	5	338	0.00	30.407 
17:50	20.8	20.8	20.8	65	10.9	3	7	315	0.00	30.407 
17:55	20.3	20.3	20.3	65	10.4	3	7	292	0.00	30.407 
18:00	20.2	20.2	20.2	66	10.7	1	5	338	0.00	30.416 
18:05	19.9	19.9	19.9	66	10.4	2	6	338	0.00	30.416 
18:10	19.7	19.7	19.7	66	10.2	3	5	338	0.00	30.416 
18:15	19.5	19.5	19.5	66	10.0	3	9	338	0.00	30.423 
18:20	19.4	19.4	19.4	66	9.9	2	6	338	0.00	30.423 
18:25	19.2	19.2	19.2	66	9.7	1	7	338	0.00	30.423 
18:30	19.2	19.2	19.2	65	9.4	2	6	270	0.00	30.437 
18:35	19.1	19.1	19.1	64	9.0	2	6	292	0.00	30.437 
18:40	18.9	18.9	18.9	63	8.4	2	5	315	0.00	30.437 
18:45	18.8	18.8	18.8	63	8.3	1	4	0	0.00	30.447 
18:50	18.6	18.6	18.6	63	8.1	1	4	292	0.00	30.447 
18:55	18.6	18.6	18.6	63	8.1	1	3	315	0.00	30.447 
19:00	18.4	18.4	18.4	64	8.3	1	4	315	0.00	30.457 
19:05	18.3	18.3	18.3	65	8.5	2	7	292	0.00	30.457 
19:10	18.0	18.0	18.0	66	8.6	2	7	292	0.00	30.457 
19:15	17.8	17.8	17.8	65	8.1	2	6	315	0.00	30.472 
19:20	17.5	17.5	17.5	64	7.4	3	7	292	0.00	30.472 
19:25	17.3	17.3	17.3	63	6.9	2	9	338	0.00	30.472 
19:30	17.2	17.2	17.2	63	6.8	2	6	270	0.00	30.486 
19:35	17.0	17.0	17.0	63	6.6	2	5	270	0.00	30.486 
19:40	17.0	17.0	17.0	64	7.0	1	5	315	0.00	30.486 
19:45	16.9	16.9	16.9	63	6.5	2	9	315	0.00	30.488 
19:50	16.7	16.7	16.7	62	6.0	3	6	292	0.00	30.488 
19:55	16.7	16.7	16.7	62	6.0	1	5	315	0.00	30.488 
20:00	16.5	16.5	16.5	62	5.8	1	4	270	0.00	30.497 
20:05	16.4	16.4	16.4	62	5.7	2	7	270	0.00	30.497 
20:10	16.2	16.2	16.2	61	5.1	2	6	338	0.00	30.497 
20:15	16.2	16.2	16.2	61	5.1	1	5	292	0.00	30.501 
20:20	15.9	15.9	15.9	60	4.5	1	6	292	0.00	30.501 
20:25	15.6	15.6	15.6	60	4.2	2	5	292	0.00	30.501 
20:30	15.4	15.4	15.4	60	4.0	1	6	270	0.00	30.505 
20:35	15.2	15.2	15.2	60	3.8	1	3	270	0.00	30.505 
20:40	14.9	14.9	14.9	60	3.6	1	7	270	0.00	30.505 
20:45	14.8	14.8	14.8	60	3.5	1	3	338	0.00	30.510 
20:50	14.6	14.6	14.6	60	3.3	1	3	338	0.00	30.510 
20:55	14.4	14.4	14.4	61	3.4	0	3	338	0.00	30.510 
21:00	14.1	14.1	14.1	61	3.2	1	3	315	0.00	30.520 
21:05	14.0	14.0	14.0	61	3.1	1	5	338	0.00	30.520 
21:10	13.8	13.8	13.8	61	2.9	1	3	338	0.00	30.520 
21:15	13.6	13.6	13.6	61	2.7	0	2	338	0.00	30.523 
21:20	13.5	13.5	13.5	61	2.6	0	2	338	0.00	30.523 
21:25	13.3	13.3	13.3	61	2.4	0	1	338	0.00	30.523 
21:30	13.1	13.1	13.1	61	2.2	0	3	338	0.00	30.532 
21:35	12.9	12.9	12.9	60	1.7	1	4	338	0.00	30.532 
21:40	12.8	12.8	12.8	59	1.2	1	3	338	0.00	30.532 
21:45	12.6	12.6	12.6	58	0.7	1	5	338	0.00	30.536 
21:50	12.4	12.4	12.4	58	0.5	1	5	270	0.00	30.536 
21:55	12.4	12.4	12.4	58	0.5	1	4	0	0.00	30.536 
22:00	12.3	12.3	12.3	58	0.4	0	2	0	0.00	30.542 
22:05	12.1	12.1	12.1	58	0.2	0	3	0	0.00	30.542 
22:10	11.9	11.9	11.9	59	0.4	0	1	0	0.00	30.542 
22:15	11.7	11.7	11.7	59	0.2	1	4	270	0.00	30.550 
22:20	11.6	11.6	11.6	59	0.1	0	1	270	0.00	30.550 
22:25	11.4	11.4	11.4	60	0.2	0	2	270	0.00	30.550 
22:30	11.2	11.2	11.2	61	0.4	0	2	270	0.00	30.553 
22:35	11.1	11.1	11.1	61	0.3	0	1	270	0.00	30.553 
22:40	10.9	10.9	10.9	62	0.5	0	2	270	0.00	30.553 
22:45	10.9	10.9	10.9	62	0.5	1	2	270	0.00	30.562 
22:50	10.7	10.7	10.7	62	0.3	0	2	270	0.00	30.562 
22:55	10.7	10.7	10.7	62	0.3	0	2	270	0.00	30.562 
23:00	10.5	10.5	10.5	63	0.4	0	2	270	0.00	30.567 
23:05	10.2	10.2	10.2	63	0.1	0	3	270	0.00	30.567 
23:10	10.2	10.2	10.2	64	0.5	0	2	270	0.00	30.567 
23:15	10.0	10.0	10.0	64	0.3	0	1	270	0.00	30.575 
23:20	9.9	9.9	9.9	64	0.2	0	0	---	0.00	30.575 
23:25	9.7	9.7	9.7	65	0.3	0	2	270	0.00	30.575 
23:30	9.5	9.5	9.5	65	0.1	0	1	270	0.00	30.575 
23:35	9.3	9.3	9.3	66	0.3	0	1	270	0.00	30.575 
23:40	9.3	9.3	9.3	66	0.3	0	2	270	0.00	30.575 
23:45	9.3	9.3	9.3	66	0.3	0	2	270	0.00	30.581 
23:50	9.2	9.2	9.2	67	0.5	0	1	270	0.00	30.581 
23:55	8.8	8.8	8.8	67	0.1	0	1	270	0.00	30.581 

CoCoRaHS
IN-AL-39
A2 Web Hosting
Creative Commons License
GoDaddy
search engine by freefind advanced

loaded 2018-11-16 23:30:01 • last modified 2010-11-18 10:43:29
Privacy PolicyDisclaimer
• wx.awcolley.com is powered by PmWiki v.2002016 •
• all content (unless otherwise noted) © 2018 A W Colley